sensor_id;sensor_type;location;lat;lon;timestamp;temperature;humidity
68609;SHT31;55581;46.718;7.690;2024-02-28T00:00:05;6.66;89.95
68609;SHT31;55581;46.718;7.690;2024-02-28T00:02:31;6.66;90.03
68609;SHT31;55581;46.718;7.690;2024-02-28T00:04:56;6.68;90.26
68609;SHT31;55581;46.718;7.690;2024-02-28T00:07:24;6.75;90.34
68609;SHT31;55581;46.718;7.690;2024-02-28T00:09:49;6.74;90.17
68609;SHT31;55581;46.718;7.690;2024-02-28T00:12:17;6.74;90.23
68609;SHT31;55581;46.718;7.690;2024-02-28T00:14:42;6.77;90.76
68609;SHT31;55581;46.718;7.690;2024-02-28T00:17:08;6.77;90.31
68609;SHT31;55581;46.718;7.690;2024-02-28T00:19:33;6.68;91.08
68609;SHT31;55581;46.718;7.690;2024-02-28T00:21:59;6.67;91.17
68609;SHT31;55581;46.718;7.690;2024-02-28T00:24:25;6.63;91.46
68609;SHT31;55581;46.718;7.690;2024-02-28T00:26:51;6.64;91.40
68609;SHT31;55581;46.718;7.690;2024-02-28T00:29:16;6.68;91.39
68609;SHT31;55581;46.718;7.690;2024-02-28T00:31:41;6.67;92.06
68609;SHT31;55581;46.718;7.690;2024-02-28T00:34:09;6.68;91.30
68609;SHT31;55581;46.718;7.690;2024-02-28T00:36:35;6.68;91.88
68609;SHT31;55581;46.718;7.690;2024-02-28T00:39:00;6.68;92.13
68609;SHT31;55581;46.718;7.690;2024-02-28T00:41:26;6.67;92.49
68609;SHT31;55581;46.718;7.690;2024-02-28T00:43:51;6.68;92.45
68609;SHT31;55581;46.718;7.690;2024-02-28T00:46:17;6.68;92.34
68609;SHT31;55581;46.718;7.690;2024-02-28T00:48:46;6.70;92.32
68609;SHT31;55581;46.718;7.690;2024-02-28T00:51:12;6.66;92.50
68609;SHT31;55581;46.718;7.690;2024-02-28T00:53:37;6.61;92.35
68609;SHT31;55581;46.718;7.690;2024-02-28T00:56:04;6.61;92.32
68609;SHT31;55581;46.718;7.690;2024-02-28T00:58:29;6.58;91.90
68609;SHT31;55581;46.718;7.690;2024-02-28T01:00:55;6.58;91.38
68609;SHT31;55581;46.718;7.690;2024-02-28T01:03:23;6.58;91.24
68609;SHT31;55581;46.718;7.690;2024-02-28T01:05:51;6.63;90.90
68609;SHT31;55581;46.718;7.690;2024-02-28T01:08:19;6.66;90.18
68609;SHT31;55581;46.718;7.690;2024-02-28T01:10:45;6.68;90.34
68609;SHT31;55581;46.718;7.690;2024-02-28T01:13:11;6.64;90.10
68609;SHT31;55581;46.718;7.690;2024-02-28T01:15:36;6.71;89.81
68609;SHT31;55581;46.718;7.690;2024-02-28T01:18:02;6.66;90.02
68609;SHT31;55581;46.718;7.690;2024-02-28T01:20:27;6.61;90.13
68609;SHT31;55581;46.718;7.690;2024-02-28T01:22:53;6.54;90.43
68609;SHT31;55581;46.718;7.690;2024-02-28T01:25:18;6.53;90.76
68609;SHT31;55581;46.718;7.690;2024-02-28T01:27:46;6.51;91.14
68609;SHT31;55581;46.718;7.690;2024-02-28T01:30:11;6.46;90.90
68609;SHT31;55581;46.718;7.690;2024-02-28T01:32:37;6.49;91.41
68609;SHT31;55581;46.718;7.690;2024-02-28T01:35:03;6.47;91.68
68609;SHT31;55581;46.718;7.690;2024-02-28T01:37:29;6.47;91.58
68609;SHT31;55581;46.718;7.690;2024-02-28T01:39:54;6.49;91.93
68609;SHT31;55581;46.718;7.690;2024-02-28T01:42:20;6.50;91.21
68609;SHT31;55581;46.718;7.690;2024-02-28T01:44:47;6.50;90.87
68609;SHT31;55581;46.718;7.690;2024-02-28T01:47:13;6.49;91.14
68609;SHT31;55581;46.718;7.690;2024-02-28T01:49:39;6.47;90.86
68609;SHT31;55581;46.718;7.690;2024-02-28T01:52:09;6.49;91.02
68609;SHT31;55581;46.718;7.690;2024-02-28T01:54:35;6.49;90.99
68609;SHT31;55581;46.718;7.690;2024-02-28T01:57:01;6.50;91.96
68609;SHT31;55581;46.718;7.690;2024-02-28T01:59:29;6.46;92.11
68609;SHT31;55581;46.718;7.690;2024-02-28T02:01:55;6.47;91.36
68609;SHT31;55581;46.718;7.690;2024-02-28T02:04:20;6.46;90.60
68609;SHT31;55581;46.718;7.690;2024-02-28T02:06:47;6.49;91.98
68609;SHT31;55581;46.718;7.690;2024-02-28T02:09:16;6.51;92.24
68609;SHT31;55581;46.718;7.690;2024-02-28T02:11:41;6.51;92.17
68609;SHT31;55581;46.718;7.690;2024-02-28T02:14:07;6.53;91.24
68609;SHT31;55581;46.718;7.690;2024-02-28T02:16:32;6.46;91.62
68609;SHT31;55581;46.718;7.690;2024-02-28T02:18:58;6.44;92.17
68609;SHT31;55581;46.718;7.690;2024-02-28T02:21:24;6.37;92.45
68609;SHT31;55581;46.718;7.690;2024-02-28T02:23:51;6.39;93.10
68609;SHT31;55581;46.718;7.690;2024-02-28T02:26:17;6.41;92.92
68609;SHT31;55581;46.718;7.690;2024-02-28T02:28:42;6.41;92.47
68609;SHT31;55581;46.718;7.690;2024-02-28T02:31:08;6.40;92.08
68609;SHT31;55581;46.718;7.690;2024-02-28T02:33:33;6.41;91.98
68609;SHT31;55581;46.718;7.690;2024-02-28T02:35:59;6.41;92.44
68609;SHT31;55581;46.718;7.690;2024-02-28T02:38:24;6.41;91.94
68609;SHT31;55581;46.718;7.690;2024-02-28T02:40:50;6.43;92.01
68609;SHT31;55581;46.718;7.690;2024-02-28T02:43:16;6.43;92.39
68609;SHT31;55581;46.718;7.690;2024-02-28T02:45:42;6.41;91.58
68609;SHT31;55581;46.718;7.690;2024-02-28T02:48:13;6.44;91.71
68609;SHT31;55581;46.718;7.690;2024-02-28T02:50:38;6.47;91.87
68609;SHT31;55581;46.718;7.690;2024-02-28T02:53:11;6.50;91.49
68609;SHT31;55581;46.718;7.690;2024-02-28T02:55:37;6.47;91.06
68609;SHT31;55581;46.718;7.690;2024-02-28T02:58:02;6.50;90.97
68609;SHT31;55581;46.718;7.690;2024-02-28T03:00:28;6.49;90.95
68609;SHT31;55581;46.718;7.690;2024-02-28T03:02:54;6.44;92.39
68609;SHT31;55581;46.718;7.690;2024-02-28T03:05:22;6.47;92.42
68609;SHT31;55581;46.718;7.690;2024-02-28T03:07:47;6.51;92.37
68609;SHT31;55581;46.718;7.690;2024-02-28T03:10:12;6.49;92.35
68609;SHT31;55581;46.718;7.690;2024-02-28T03:12:38;6.47;91.83
68609;SHT31;55581;46.718;7.690;2024-02-28T03:15:03;6.47;91.48
68609;SHT31;55581;46.718;7.690;2024-02-28T03:17:29;6.49;91.53
68609;SHT31;55581;46.718;7.690;2024-02-28T03:19:57;6.50;91.49
68609;SHT31;55581;46.718;7.690;2024-02-28T03:22:22;6.49;91.70
68609;SHT31;55581;46.718;7.690;2024-02-28T03:24:48;6.47;92.32
68609;SHT31;55581;46.718;7.690;2024-02-28T03:27:14;6.43;92.17
68609;SHT31;55581;46.718;7.690;2024-02-28T03:29:39;6.41;91.88
68609;SHT31;55581;46.718;7.690;2024-02-28T03:32:11;6.39;91.94
68609;SHT31;55581;46.718;7.690;2024-02-28T03:34:36;6.34;91.51
68609;SHT31;55581;46.718;7.690;2024-02-28T03:37:02;6.36;91.54
68609;SHT31;55581;46.718;7.690;2024-02-28T03:39:27;6.40;91.38
68609;SHT31;55581;46.718;7.690;2024-02-28T03:41:53;6.43;90.93
68609;SHT31;55581;46.718;7.690;2024-02-28T03:44:21;6.46;91.98
68609;SHT31;55581;46.718;7.690;2024-02-28T03:46:47;6.47;92.12
68609;SHT31;55581;46.718;7.690;2024-02-28T03:49:12;6.43;91.67
68609;SHT31;55581;46.718;7.690;2024-02-28T03:51:41;6.39;91.27
68609;SHT31;55581;46.718;7.690;2024-02-28T03:54:06;6.43;92.44
68609;SHT31;55581;46.718;7.690;2024-02-28T03:56:32;6.46;92.58
68609;SHT31;55581;46.718;7.690;2024-02-28T03:59:00;6.47;91.65
68609;SHT31;55581;46.718;7.690;2024-02-28T04:01:26;6.51;91.55
68609;SHT31;55581;46.718;7.690;2024-02-28T04:03:51;6.53;90.99
68609;SHT31;55581;46.718;7.690;2024-02-28T04:06:17;6.49;91.11
68609;SHT31;55581;46.718;7.690;2024-02-28T04:08:42;6.49;91.81
68609;SHT31;55581;46.718;7.690;2024-02-28T04:11:08;6.49;92.01
68609;SHT31;55581;46.718;7.690;2024-02-28T04:13:33;6.46;91.73
68609;SHT31;55581;46.718;7.690;2024-02-28T04:15:58;6.46;92.42
68609;SHT31;55581;46.718;7.690;2024-02-28T04:18:24;6.43;92.15
68609;SHT31;55581;46.718;7.690;2024-02-28T04:20:49;6.39;91.82
68609;SHT31;55581;46.718;7.690;2024-02-28T04:23:17;6.36;91.83
68609;SHT31;55581;46.718;7.690;2024-02-28T04:25:43;6.29;92.20
68609;SHT31;55581;46.718;7.690;2024-02-28T04:28:12;6.30;92.32
68609;SHT31;55581;46.718;7.690;2024-02-28T04:30:38;6.29;92.43
68609;SHT31;55581;46.718;7.690;2024-02-28T04:33:03;6.30;92.85
68609;SHT31;55581;46.718;7.690;2024-02-28T04:35:29;6.36;92.65
68609;SHT31;55581;46.718;7.690;2024-02-28T04:37:54;6.44;92.40
68609;SHT31;55581;46.718;7.690;2024-02-28T04:40:19;6.44;92.09
68609;SHT31;55581;46.718;7.690;2024-02-28T04:42:45;6.44;92.24
68609;SHT31;55581;46.718;7.690;2024-02-28T04:45:12;6.46;92.12
68609;SHT31;55581;46.718;7.690;2024-02-28T04:47:38;6.43;92.09
68609;SHT31;55581;46.718;7.690;2024-02-28T04:50:04;6.47;92.24
68609;SHT31;55581;46.718;7.690;2024-02-28T04:52:31;6.49;91.80
68609;SHT31;55581;46.718;7.690;2024-02-28T04:54:57;6.51;91.94
68609;SHT31;55581;46.718;7.690;2024-02-28T04:57:27;6.51;92.32
68609;SHT31;55581;46.718;7.690;2024-02-28T04:59:52;6.47;91.85
68609;SHT31;55581;46.718;7.690;2024-02-28T05:02:18;6.44;91.28
68609;SHT31;55581;46.718;7.690;2024-02-28T05:04:44;6.49;91.32
68609;SHT31;55581;46.718;7.690;2024-02-28T05:07:11;6.46;90.88
68609;SHT31;55581;46.718;7.690;2024-02-28T05:09:37;6.44;91.41
68609;SHT31;55581;46.718;7.690;2024-02-28T05:12:02;6.44;91.01
68609;SHT31;55581;46.718;7.690;2024-02-28T05:14:28;6.34;91.15
68609;SHT31;55581;46.718;7.690;2024-02-28T05:16:53;6.44;91.60
68609;SHT31;55581;46.718;7.690;2024-02-28T05:19:19;6.47;91.42
68609;SHT31;55581;46.718;7.690;2024-02-28T05:21:44;6.50;91.68
68609;SHT31;55581;46.718;7.690;2024-02-28T05:24:16;6.51;91.33
68609;SHT31;55581;46.718;7.690;2024-02-28T05:26:41;6.57;91.10
68609;SHT31;55581;46.718;7.690;2024-02-28T05:29:07;6.54;90.98
68609;SHT31;55581;46.718;7.690;2024-02-28T05:31:33;6.50;90.91
68609;SHT31;55581;46.718;7.690;2024-02-28T05:34:00;6.44;91.17
68609;SHT31;55581;46.718;7.690;2024-02-28T05:36:29;6.46;91.63
68609;SHT31;55581;46.718;7.690;2024-02-28T05:38:59;6.44;90.83
68609;SHT31;55581;46.718;7.690;2024-02-28T05:41:25;6.44;91.02
68609;SHT31;55581;46.718;7.690;2024-02-28T05:43:51;6.43;90.92
68609;SHT31;55581;46.718;7.690;2024-02-28T05:46:19;6.40;91.04
68609;SHT31;55581;46.718;7.690;2024-02-28T05:48:45;6.37;91.19
68609;SHT31;55581;46.718;7.690;2024-02-28T05:51:12;6.36;91.34
68609;SHT31;55581;46.718;7.690;2024-02-28T05:53:38;6.39;91.34
68609;SHT31;55581;46.718;7.690;2024-02-28T05:56:05;6.39;91.02
68609;SHT31;55581;46.718;7.690;2024-02-28T05:58:31;6.44;91.74
68609;SHT31;55581;46.718;7.690;2024-02-28T06:00:56;6.47;91.87
68609;SHT31;55581;46.718;7.690;2024-02-28T06:03:22;6.47;91.34
68609;SHT31;55581;46.718;7.690;2024-02-28T06:05:47;6.46;91.37
68609;SHT31;55581;46.718;7.690;2024-02-28T06:08:13;6.43;91.93
68609;SHT31;55581;46.718;7.690;2024-02-28T06:10:41;6.41;91.36
68609;SHT31;55581;46.718;7.690;2024-02-28T06:13:12;6.39;91.59
68609;SHT31;55581;46.718;7.690;2024-02-28T06:15:37;6.39;91.77
68609;SHT31;55581;46.718;7.690;2024-02-28T06:18:03;6.34;91.59
68609;SHT31;55581;46.718;7.690;2024-02-28T06:20:28;6.36;91.55
68609;SHT31;55581;46.718;7.690;2024-02-28T06:22:56;6.37;91.82
68609;SHT31;55581;46.718;7.690;2024-02-28T06:25:21;6.37;91.42
68609;SHT31;55581;46.718;7.690;2024-02-28T06:27:51;6.37;91.32
68609;SHT31;55581;46.718;7.690;2024-02-28T06:30:19;6.40;91.30
68609;SHT31;55581;46.718;7.690;2024-02-28T06:32:44;6.44;91.66
68609;SHT31;55581;46.718;7.690;2024-02-28T06:35:12;6.51;91.35
68609;SHT31;55581;46.718;7.690;2024-02-28T06:37:39;6.56;91.17
68609;SHT31;55581;46.718;7.690;2024-02-28T06:40:05;6.57;91.67
68609;SHT31;55581;46.718;7.690;2024-02-28T06:42:34;6.60;91.47
68609;SHT31;55581;46.718;7.690;2024-02-28T06:45:02;6.61;91.72
68609;SHT31;55581;46.718;7.690;2024-02-28T06:47:27;6.66;91.20
68609;SHT31;55581;46.718;7.690;2024-02-28T06:49:55;6.66;91.14
68609;SHT31;55581;46.718;7.690;2024-02-28T06:52:20;6.67;90.94
68609;SHT31;55581;46.718;7.690;2024-02-28T06:54:45;6.68;92.03
68609;SHT31;55581;46.718;7.690;2024-02-28T06:57:11;6.68;92.31
68609;SHT31;55581;46.718;7.690;2024-02-28T06:59:36;6.67;92.40
68609;SHT31;55581;46.718;7.690;2024-02-28T07:02:02;6.66;92.46
68609;SHT31;55581;46.718;7.690;2024-02-28T07:04:27;6.66;91.60
68609;SHT31;55581;46.718;7.690;2024-02-28T07:06:53;6.66;91.33
68609;SHT31;55581;46.718;7.690;2024-02-28T07:09:18;6.66;91.41
68609;SHT31;55581;46.718;7.690;2024-02-28T07:11:43;6.71;91.76
68609;SHT31;55581;46.718;7.690;2024-02-28T07:14:09;6.85;91.43
68609;SHT31;55581;46.718;7.690;2024-02-28T07:16:39;6.89;90.93
68609;SHT31;55581;46.718;7.690;2024-02-28T07:19:07;6.85;91.17
68609;SHT31;55581;46.718;7.690;2024-02-28T07:21:37;6.83;91.42
68609;SHT31;55581;46.718;7.690;2024-02-28T07:24:03;6.78;91.65
68609;SHT31;55581;46.718;7.690;2024-02-28T07:26:31;6.81;91.91
68609;SHT31;55581;46.718;7.690;2024-02-28T07:28:56;6.81;91.79
68609;SHT31;55581;46.718;7.690;2024-02-28T07:31:21;6.84;92.12
68609;SHT31;55581;46.718;7.690;2024-02-28T07:33:47;6.78;92.40
68609;SHT31;55581;46.718;7.690;2024-02-28T07:36:13;6.83;92.65
68609;SHT31;55581;46.718;7.690;2024-02-28T07:38:38;6.81;92.90
68609;SHT31;55581;46.718;7.690;2024-02-28T07:41:06;6.81;92.99
68609;SHT31;55581;46.718;7.690;2024-02-28T07:43:31;6.83;92.79
68609;SHT31;55581;46.718;7.690;2024-02-28T07:46:02;6.81;92.77
68609;SHT31;55581;46.718;7.690;2024-02-28T07:48:27;6.84;92.78
68609;SHT31;55581;46.718;7.690;2024-02-28T07:50:53;6.80;93.34
68609;SHT31;55581;46.718;7.690;2024-02-28T07:53:18;6.81;93.36
68609;SHT31;55581;46.718;7.690;2024-02-28T07:55:43;6.77;94.20
68609;SHT31;55581;46.718;7.690;2024-02-28T07:58:10;6.78;94.16
68609;SHT31;55581;46.718;7.690;2024-02-28T08:00:35;6.78;94.07
68609;SHT31;55581;46.718;7.690;2024-02-28T08:03:01;6.78;94.47
68609;SHT31;55581;46.718;7.690;2024-02-28T08:05:26;6.75;94.44
68609;SHT31;55581;46.718;7.690;2024-02-28T08:07:52;6.81;94.32
68609;SHT31;55581;46.718;7.690;2024-02-28T08:10:17;6.81;94.54
68609;SHT31;55581;46.718;7.690;2024-02-28T08:12:43;6.81;94.11
68609;SHT31;55581;46.718;7.690;2024-02-28T08:15:09;6.87;94.19
68609;SHT31;55581;46.718;7.690;2024-02-28T08:17:34;6.88;93.96
68609;SHT31;55581;46.718;7.690;2024-02-28T08:20:00;6.88;94.09
68609;SHT31;55581;46.718;7.690;2024-02-28T08:22:26;6.87;93.89
68609;SHT31;55581;46.718;7.690;2024-02-28T08:24:51;6.88;94.42
68609;SHT31;55581;46.718;7.690;2024-02-28T08:27:19;6.91;94.13
68609;SHT31;55581;46.718;7.690;2024-02-28T08:29:46;6.88;94.02
68609;SHT31;55581;46.718;7.690;2024-02-28T08:32:12;6.89;93.79
68609;SHT31;55581;46.718;7.690;2024-02-28T08:34:38;6.87;93.30
68609;SHT31;55581;46.718;7.690;2024-02-28T08:37:03;6.92;93.25
68609;SHT31;55581;46.718;7.690;2024-02-28T08:39:32;6.96;93.31
68609;SHT31;55581;46.718;7.690;2024-02-28T08:41:57;6.99;93.27
68609;SHT31;55581;46.718;7.690;2024-02-28T08:44:23;7.05;93.50
68609;SHT31;55581;46.718;7.690;2024-02-28T08:46:48;7.08;93.14
68609;SHT31;55581;46.718;7.690;2024-02-28T08:49:14;7.06;93.11
68609;SHT31;55581;46.718;7.690;2024-02-28T08:51:40;7.05;92.99
68609;SHT31;55581;46.718;7.690;2024-02-28T08:54:05;7.05;93.62
68609;SHT31;55581;46.718;7.690;2024-02-28T08:56:31;7.04;93.75
68609;SHT31;55581;46.718;7.690;2024-02-28T08:58:56;7.06;93.84
68609;SHT31;55581;46.718;7.690;2024-02-28T09:01:22;7.08;93.61
68609;SHT31;55581;46.718;7.690;2024-02-28T09:03:49;7.09;93.47
68609;SHT31;55581;46.718;7.690;2024-02-28T09:06:15;7.15;93.32
68609;SHT31;55581;46.718;7.690;2024-02-28T09:08:40;7.22;92.89
68609;SHT31;55581;46.718;7.690;2024-02-28T09:11:06;7.20;92.69
68609;SHT31;55581;46.718;7.690;2024-02-28T09:13:31;7.19;93.11
68609;SHT31;55581;46.718;7.690;2024-02-28T09:15:57;7.13;92.95
68609;SHT31;55581;46.718;7.690;2024-02-28T09:18:23;7.16;92.56
68609;SHT31;55581;46.718;7.690;2024-02-28T09:20:49;7.08;91.58
68609;SHT31;55581;46.718;7.690;2024-02-28T09:23:14;7.12;92.36
68609;SHT31;55581;46.718;7.690;2024-02-28T09:25:41;7.15;92.47
68609;SHT31;55581;46.718;7.690;2024-02-28T09:28:07;7.11;91.43
68609;SHT31;55581;46.718;7.690;2024-02-28T09:30:33;7.15;91.23
68609;SHT31;55581;46.718;7.690;2024-02-28T09:33:03;7.13;91.20
68609;SHT31;55581;46.718;7.690;2024-02-28T09:35:29;7.15;91.73
68609;SHT31;55581;46.718;7.690;2024-02-28T09:37:54;7.11;91.85
68609;SHT31;55581;46.718;7.690;2024-02-28T09:40:22;7.09;91.06
68609;SHT31;55581;46.718;7.690;2024-02-28T09:42:52;7.15;90.35
68609;SHT31;55581;46.718;7.690;2024-02-28T09:45:23;7.20;90.60
68609;SHT31;55581;46.718;7.690;2024-02-28T09:47:49;6.99;88.05
68609;SHT31;55581;46.718;7.690;2024-02-28T09:50:15;6.98;89.28
68609;SHT31;55581;46.718;7.690;2024-02-28T09:52:41;6.98;90.00
68609;SHT31;55581;46.718;7.690;2024-02-28T09:55:06;7.01;89.24
68609;SHT31;55581;46.718;7.690;2024-02-28T09:57:34;7.04;89.54
68609;SHT31;55581;46.718;7.690;2024-02-28T10:00:00;7.01;89.11
68609;SHT31;55581;46.718;7.690;2024-02-28T10:02:26;6.99;89.79
68609;SHT31;55581;46.718;7.690;2024-02-28T10:04:55;7.04;90.15
68609;SHT31;55581;46.718;7.690;2024-02-28T10:07:22;7.01;89.94
68609;SHT31;55581;46.718;7.690;2024-02-28T10:09:48;7.05;89.54
68609;SHT31;55581;46.718;7.690;2024-02-28T10:12:14;7.06;89.09
68609;SHT31;55581;46.718;7.690;2024-02-28T10:14:39;7.11;88.86
68609;SHT31;55581;46.718;7.690;2024-02-28T10:17:06;7.13;89.11
68609;SHT31;55581;46.718;7.690;2024-02-28T10:19:33;7.18;89.51
68609;SHT31;55581;46.718;7.690;2024-02-28T10:21:58;7.19;88.23
68609;SHT31;55581;46.718;7.690;2024-02-28T10:24:24;7.22;88.19
68609;SHT31;55581;46.718;7.690;2024-02-28T10:26:50;7.23;88.99
68609;SHT31;55581;46.718;7.690;2024-02-28T10:29:24;7.27;86.98
68609;SHT31;55581;46.718;7.690;2024-02-28T10:31:51;7.26;87.05
68609;SHT31;55581;46.718;7.690;2024-02-28T10:34:17;7.32;87.62
68609;SHT31;55581;46.718;7.690;2024-02-28T10:36:46;7.32;87.33
68609;SHT31;55581;46.718;7.690;2024-02-28T10:39:13;7.34;87.78
68609;SHT31;55581;46.718;7.690;2024-02-28T10:41:42;7.30;87.13
68609;SHT31;55581;46.718;7.690;2024-02-28T10:44:09;7.23;87.22
68609;SHT31;55581;46.718;7.690;2024-02-28T10:46:39;7.26;87.19
68609;SHT31;55581;46.718;7.690;2024-02-28T10:49:07;7.26;86.63
68609;SHT31;55581;46.718;7.690;2024-02-28T10:51:36;7.23;87.80
68609;SHT31;55581;46.718;7.690;2024-02-28T10:54:08;7.24;86.93
68609;SHT31;55581;46.718;7.690;2024-02-28T10:56:35;7.26;85.99
68609;SHT31;55581;46.718;7.690;2024-02-28T10:59:01;7.23;86.80
68609;SHT31;55581;46.718;7.690;2024-02-28T11:01:27;7.30;87.21
68609;SHT31;55581;46.718;7.690;2024-02-28T11:03:53;7.36;86.85
68609;SHT31;55581;46.718;7.690;2024-02-28T11:06:20;7.39;87.32
68609;SHT31;55581;46.718;7.690;2024-02-28T11:08:51;7.47;87.19
68609;SHT31;55581;46.718;7.690;2024-02-28T11:11:20;7.44;86.14
68609;SHT31;55581;46.718;7.690;2024-02-28T11:13:53;7.39;85.66
68609;SHT31;55581;46.718;7.690;2024-02-28T11:16:29;7.49;86.01
68609;SHT31;55581;46.718;7.690;2024-02-28T11:18:58;7.68;85.57
68609;SHT31;55581;46.718;7.690;2024-02-28T11:21:24;7.74;85.18
68609;SHT31;55581;46.718;7.690;2024-02-28T11:23:51;7.67;84.91
68609;SHT31;55581;46.718;7.690;2024-02-28T11:26:19;7.59;84.59
68609;SHT31;55581;46.718;7.690;2024-02-28T11:28:45;7.53;85.18
68609;SHT31;55581;46.718;7.690;2024-02-28T11:31:11;7.51;85.39
68609;SHT31;55581;46.718;7.690;2024-02-28T11:33:36;7.50;85.46
68609;SHT31;55581;46.718;7.690;2024-02-28T11:36:03;7.50;85.79
68609;SHT31;55581;46.718;7.690;2024-02-28T11:38:29;7.50;84.93
68609;SHT31;55581;46.718;7.690;2024-02-28T11:40:54;7.51;85.25
68609;SHT31;55581;46.718;7.690;2024-02-28T11:43:23;7.53;85.35
68609;SHT31;55581;46.718;7.690;2024-02-28T11:45:49;7.59;83.66
68609;SHT31;55581;46.718;7.690;2024-02-28T11:48:16;7.63;84.21
68609;SHT31;55581;46.718;7.690;2024-02-28T11:50:42;7.75;84.68
68609;SHT31;55581;46.718;7.690;2024-02-28T11:53:10;7.81;83.57
68609;SHT31;55581;46.718;7.690;2024-02-28T11:55:35;7.84;83.74
68609;SHT31;55581;46.718;7.690;2024-02-28T11:58:07;7.79;83.43
68609;SHT31;55581;46.718;7.690;2024-02-28T12:00:33;7.85;83.37
68609;SHT31;55581;46.718;7.690;2024-02-28T12:03:05;7.94;83.40
68609;SHT31;55581;46.718;7.690;2024-02-28T12:05:35;7.94;83.77
68609;SHT31;55581;46.718;7.690;2024-02-28T12:08:03;8.01;83.28
68609;SHT31;55581;46.718;7.690;2024-02-28T12:10:29;8.01;83.20
68609;SHT31;55581;46.718;7.690;2024-02-28T12:12:59;7.99;82.85
68609;SHT31;55581;46.718;7.690;2024-02-28T12:15:28;8.03;82.05
68609;SHT31;55581;46.718;7.690;2024-02-28T12:17:54;8.12;81.61
68609;SHT31;55581;46.718;7.690;2024-02-28T12:20:20;8.09;81.86
68609;SHT31;55581;46.718;7.690;2024-02-28T12:22:45;8.13;81.29
68609;SHT31;55581;46.718;7.690;2024-02-28T12:25:11;8.19;82.26
68609;SHT31;55581;46.718;7.690;2024-02-28T12:27:43;8.16;81.72
68609;SHT31;55581;46.718;7.690;2024-02-28T12:30:09;8.28;81.71
68609;SHT31;55581;46.718;7.690;2024-02-28T12:32:37;8.32;81.47
68609;SHT31;55581;46.718;7.690;2024-02-28T12:35:02;8.34;81.06
68609;SHT31;55581;46.718;7.690;2024-02-28T12:37:29;8.37;79.83
68609;SHT31;55581;46.718;7.690;2024-02-28T12:39:54;8.37;79.82
68609;SHT31;55581;46.718;7.690;2024-02-28T12:42:20;8.46;79.62
68609;SHT31;55581;46.718;7.690;2024-02-28T12:44:45;8.53;80.85
68609;SHT31;55581;46.718;7.690;2024-02-28T12:47:12;8.57;81.26
68609;SHT31;55581;46.718;7.690;2024-02-28T12:49:40;8.59;81.57
68609;SHT31;55581;46.718;7.690;2024-02-28T12:52:08;8.56;82.19
68609;SHT31;55581;46.718;7.690;2024-02-28T12:54:34;8.68;82.52
68609;SHT31;55581;46.718;7.690;2024-02-28T12:56:59;8.60;81.18
68609;SHT31;55581;46.718;7.690;2024-02-28T12:59:28;8.47;81.13
68609;SHT31;55581;46.718;7.690;2024-02-28T13:01:53;8.47;82.46
68609;SHT31;55581;46.718;7.690;2024-02-28T13:04:19;8.50;82.58
68609;SHT31;55581;46.718;7.690;2024-02-28T13:06:44;8.59;83.19
68609;SHT31;55581;46.718;7.690;2024-02-28T13:09:09;8.54;82.43
68609;SHT31;55581;46.718;7.690;2024-02-28T13:11:38;8.54;82.40
68609;SHT31;55581;46.718;7.690;2024-02-28T13:14:03;8.54;81.97
68609;SHT31;55581;46.718;7.690;2024-02-28T13:16:29;8.52;81.58
68609;SHT31;55581;46.718;7.690;2024-02-28T13:18:55;8.43;81.68
68609;SHT31;55581;46.718;7.690;2024-02-28T13:21:20;8.43;82.07
68609;SHT31;55581;46.718;7.690;2024-02-28T13:23:46;8.43;81.92
68609;SHT31;55581;46.718;7.690;2024-02-28T13:26:11;8.40;81.99
68609;SHT31;55581;46.718;7.690;2024-02-28T13:28:45;8.44;82.73
68609;SHT31;55581;46.718;7.690;2024-02-28T13:31:13;8.47;82.02
68609;SHT31;55581;46.718;7.690;2024-02-28T13:33:39;8.44;81.95
68609;SHT31;55581;46.718;7.690;2024-02-28T13:36:06;8.46;81.30
68609;SHT31;55581;46.718;7.690;2024-02-28T13:38:32;8.43;81.37
68609;SHT31;55581;46.718;7.690;2024-02-28T13:40:57;8.36;82.17
68609;SHT31;55581;46.718;7.690;2024-02-28T13:43:23;8.32;82.13
68609;SHT31;55581;46.718;7.690;2024-02-28T13:45:49;8.29;82.51
68609;SHT31;55581;46.718;7.690;2024-02-28T13:48:19;8.29;82.50
68609;SHT31;55581;46.718;7.690;2024-02-28T13:50:46;8.29;82.83
68609;SHT31;55581;46.718;7.690;2024-02-28T13:53:13;8.34;83.27
68609;SHT31;55581;46.718;7.690;2024-02-28T13:55:40;8.36;83.89
68609;SHT31;55581;46.718;7.690;2024-02-28T13:58:09;8.34;84.05
68609;SHT31;55581;46.718;7.690;2024-02-28T14:00:36;8.36;83.09
68609;SHT31;55581;46.718;7.690;2024-02-28T14:03:04;8.36;82.41
68609;SHT31;55581;46.718;7.690;2024-02-28T14:05:31;8.33;81.66
68609;SHT31;55581;46.718;7.690;2024-02-28T14:07:57;8.16;82.13
68609;SHT31;55581;46.718;7.690;2024-02-28T14:10:25;8.17;83.16
68609;SHT31;55581;46.718;7.690;2024-02-28T14:12:51;8.09;82.85
68609;SHT31;55581;46.718;7.690;2024-02-28T14:15:19;8.15;83.10
68609;SHT31;55581;46.718;7.690;2024-02-28T14:17:45;8.21;83.36
68609;SHT31;55581;46.718;7.690;2024-02-28T14:20:11;8.17;83.62
68609;SHT31;55581;46.718;7.690;2024-02-28T14:22:37;8.22;83.22
68609;SHT31;55581;46.718;7.690;2024-02-28T14:25:09;8.29;83.15
68609;SHT31;55581;46.718;7.690;2024-02-28T14:27:36;8.26;84.25
68609;SHT31;55581;46.718;7.690;2024-02-28T14:30:02;8.21;83.75
68609;SHT31;55581;46.718;7.690;2024-02-28T14:32:33;8.17;82.68
68609;SHT31;55581;46.718;7.690;2024-02-28T14:34:58;8.10;82.42
68609;SHT31;55581;46.718;7.690;2024-02-28T14:37:24;8.15;82.41
68609;SHT31;55581;46.718;7.690;2024-02-28T14:39:49;8.09;82.73
68609;SHT31;55581;46.718;7.690;2024-02-28T14:42:14;8.12;83.00
68609;SHT31;55581;46.718;7.690;2024-02-28T14:44:43;8.17;83.39
68609;SHT31;55581;46.718;7.690;2024-02-28T14:47:08;8.23;83.50
68609;SHT31;55581;46.718;7.690;2024-02-28T14:49:38;8.16;84.04
68609;SHT31;55581;46.718;7.690;2024-02-28T14:52:04;8.16;82.56
68609;SHT31;55581;46.718;7.690;2024-02-28T14:54:29;8.10;82.88
68609;SHT31;55581;46.718;7.690;2024-02-28T14:56:57;8.12;82.50
68609;SHT31;55581;46.718;7.690;2024-02-28T14:59:27;8.03;83.04
68609;SHT31;55581;46.718;7.690;2024-02-28T15:01:55;8.05;83.18
68609;SHT31;55581;46.718;7.690;2024-02-28T15:04:20;8.05;83.17
68609;SHT31;55581;46.718;7.690;2024-02-28T15:06:46;8.10;84.45
68609;SHT31;55581;46.718;7.690;2024-02-28T15:09:11;8.08;84.15
68609;SHT31;55581;46.718;7.690;2024-02-28T15:11:41;8.15;83.04
68609;SHT31;55581;46.718;7.690;2024-02-28T15:14:07;8.19;82.22
68609;SHT31;55581;46.718;7.690;2024-02-28T15:16:33;8.09;82.82
68609;SHT31;55581;46.718;7.690;2024-02-28T15:18:58;7.99;83.14
68609;SHT31;55581;46.718;7.690;2024-02-28T15:21:26;7.98;83.48
68609;SHT31;55581;46.718;7.690;2024-02-28T15:23:52;7.98;83.61
68609;SHT31;55581;46.718;7.690;2024-02-28T15:26:17;7.94;84.41
68609;SHT31;55581;46.718;7.690;2024-02-28T15:28:42;7.94;83.44
68609;SHT31;55581;46.718;7.690;2024-02-28T15:31:08;7.94;83.46
68609;SHT31;55581;46.718;7.690;2024-02-28T15:33:33;7.91;82.87
68609;SHT31;55581;46.718;7.690;2024-02-28T15:35:58;7.88;83.65
68609;SHT31;55581;46.718;7.690;2024-02-28T15:38:25;7.87;84.32